sensor_id;sensor_type;location;lat;lon;timestamp;temperature;humidity
1411;DHT22;700;51.906;8.404;2023-07-29T00:02:29;21.90;99.90
1411;DHT22;700;51.906;8.404;2023-07-29T00:07:32;22.00;99.90
1411;DHT22;700;51.906;8.404;2023-07-29T00:12:33;22.00;99.90
1411;DHT22;700;51.906;8.404;2023-07-29T00:17:34;22.10;99.90
1411;DHT22;700;51.906;8.404;2023-07-29T00:22:34;22.00;99.90
1411;DHT22;700;51.906;8.404;2023-07-29T00:27:35;21.90;99.90
1411;DHT22;700;51.906;8.404;2023-07-29T00:32:37;22.00;99.90
1411;DHT22;700;51.906;8.404;2023-07-29T00:37:38;21.90;99.90
1411;DHT22;700;51.906;8.404;2023-07-29T00:42:41;21.90;99.90
1411;DHT22;700;51.906;8.404;2023-07-29T00:47:43;22.00;99.90
1411;DHT22;700;51.906;8.404;2023-07-29T00:52:44;22.10;99.90
1411;DHT22;700;51.906;8.404;2023-07-29T00:57:45;22.10;99.90
1411;DHT22;700;51.906;8.404;2023-07-29T01:02:52;22.20;99.90
1411;DHT22;700;51.906;8.404;2023-07-29T01:07:59;21.90;99.90
1411;DHT22;700;51.906;8.404;2023-07-29T01:18:30;22.30;99.90
1411;DHT22;700;51.906;8.404;2023-07-29T01:23:33;22.30;99.90
1411;DHT22;700;51.906;8.404;2023-07-29T01:28:38;22.10;99.90
1411;DHT22;700;51.906;8.404;2023-07-29T01:33:57;21.90;99.90
1411;DHT22;700;51.906;8.404;2023-07-29T01:38:59;21.70;99.90
1411;DHT22;700;51.906;8.404;2023-07-29T01:44:01;21.80;99.90
1411;DHT22;700;51.906;8.404;2023-07-29T01:49:07;22.00;99.90
1411;DHT22;700;51.906;8.404;2023-07-29T01:54:07;22.10;99.90
1411;DHT22;700;51.906;8.404;2023-07-29T01:59:08;22.10;99.90
1411;DHT22;700;51.906;8.404;2023-07-29T02:04:14;22.00;99.90
1411;DHT22;700;51.906;8.404;2023-07-29T02:09:17;22.10;99.90
1411;DHT22;700;51.906;8.404;2023-07-29T02:14:17;21.70;99.90
1411;DHT22;700;51.906;8.404;2023-07-29T02:19:18;21.80;99.90
1411;DHT22;700;51.906;8.404;2023-07-29T02:24:19;21.60;99.90
1411;DHT22;700;51.906;8.404;2023-07-29T02:29:19;21.60;99.90
1411;DHT22;700;51.906;8.404;2023-07-29T02:34:22;21.60;99.90
1411;DHT22;700;51.906;8.404;2023-07-29T02:39:25;21.70;99.90
1411;DHT22;700;51.906;8.404;2023-07-29T02:44:26;21.70;99.90
1411;DHT22;700;51.906;8.404;2023-07-29T02:49:27;21.70;99.90
1411;DHT22;700;51.906;8.404;2023-07-29T02:54:30;21.50;99.90
1411;DHT22;700;51.906;8.404;2023-07-29T02:59:31;21.70;99.90
1411;DHT22;700;51.906;8.404;2023-07-29T03:04:36;21.80;99.90
1411;DHT22;700;51.906;8.404;2023-07-29T03:09:41;22.00;99.90
1411;DHT22;700;51.906;8.404;2023-07-29T03:14:47;21.90;99.90
1411;DHT22;700;51.906;8.404;2023-07-29T03:19:51;22.10;99.90
1411;DHT22;700;51.906;8.404;2023-07-29T03:24:54;22.00;99.90
1411;DHT22;700;51.906;8.404;2023-07-29T03:29:57;22.00;99.90
1411;DHT22;700;51.906;8.404;2023-07-29T03:35:00;22.30;99.90
1411;DHT22;700;51.906;8.404;2023-07-29T03:40:01;22.30;99.90
1411;DHT22;700;51.906;8.404;2023-07-29T03:45:02;22.20;99.90
1411;DHT22;700;51.906;8.404;2023-07-29T03:50:02;22.20;99.90
1411;DHT22;700;51.906;8.404;2023-07-29T03:55:03;21.90;99.90
1411;DHT22;700;51.906;8.404;2023-07-29T04:00:06;22.10;99.90
1411;DHT22;700;51.906;8.404;2023-07-29T04:05:07;22.00;99.90
1411;DHT22;700;51.906;8.404;2023-07-29T04:10:09;22.20;99.90
1411;DHT22;700;51.906;8.404;2023-07-29T04:15:14;22.30;99.90
1411;DHT22;700;51.906;8.404;2023-07-29T04:20:14;22.20;99.90
1411;DHT22;700;51.906;8.404;2023-07-29T04:25:15;21.90;99.90
1411;DHT22;700;51.906;8.404;2023-07-29T04:30:18;22.20;99.90
1411;DHT22;700;51.906;8.404;2023-07-29T04:35:21;22.20;99.90
1411;DHT22;700;51.906;8.404;2023-07-29T04:40:24;22.40;99.90
1411;DHT22;700;51.906;8.404;2023-07-29T04:45:28;22.40;99.90
1411;DHT22;700;51.906;8.404;2023-07-29T04:50:29;22.30;99.90
1411;DHT22;700;51.906;8.404;2023-07-29T04:55:30;22.20;99.90
1411;DHT22;700;51.906;8.404;2023-07-29T05:00:33;22.10;99.90
1411;DHT22;700;51.906;8.404;2023-07-29T05:05:36;22.00;99.90
1411;DHT22;700;51.906;8.404;2023-07-29T05:10:39;22.10;99.90
1411;DHT22;700;51.906;8.404;2023-07-29T05:15:40;22.20;99.90
1411;DHT22;700;51.906;8.404;2023-07-29T05:20:43;22.20;99.90
1411;DHT22;700;51.906;8.404;2023-07-29T05:25:46;22.30;99.90
1411;DHT22;700;51.906;8.404;2023-07-29T05:30:46;22.30;99.90
1411;DHT22;700;51.906;8.404;2023-07-29T05:35:47;22.20;99.90
1411;DHT22;700;51.906;8.404;2023-07-29T05:40:48;22.40;99.90
1411;DHT22;700;51.906;8.404;2023-07-29T05:45:49;22.60;99.90
1411;DHT22;700;51.906;8.404;2023-07-29T05:50:49;22.90;99.90
1411;DHT22;700;51.906;8.404;2023-07-29T05:55:53;22.80;99.90
1411;DHT22;700;51.906;8.404;2023-07-29T06:00:56;22.60;99.90
1411;DHT22;700;51.906;8.404;2023-07-29T06:05:56;22.70;99.90
1411;DHT22;700;51.906;8.404;2023-07-29T06:10:57;22.30;99.90
1411;DHT22;700;51.906;8.404;2023-07-29T06:16:00;22.40;99.90
1411;DHT22;700;51.906;8.404;2023-07-29T06:21:00;22.40;99.90
1411;DHT22;700;51.906;8.404;2023-07-29T06:26:07;22.40;99.90
1411;DHT22;700;51.906;8.404;2023-07-29T06:31:13;22.40;99.90
1411;DHT22;700;51.906;8.404;2023-07-29T06:36:14;22.70;99.90
1411;DHT22;700;51.906;8.404;2023-07-29T06:41:14;22.90;99.90
1411;DHT22;700;51.906;8.404;2023-07-29T06:46:15;22.90;99.90
1411;DHT22;700;51.906;8.404;2023-07-29T06:51:15;22.80;99.90
1411;DHT22;700;51.906;8.404;2023-07-29T06:56:18;23.00;99.90
1411;DHT22;700;51.906;8.404;2023-07-29T07:01:19;22.80;99.90
1411;DHT22;700;51.906;8.404;2023-07-29T07:06:22;22.50;99.90
1411;DHT22;700;51.906;8.404;2023-07-29T07:11:25;22.70;99.90
1411;DHT22;700;51.906;8.404;2023-07-29T07:16:34;22.80;99.90
1411;DHT22;700;51.906;8.404;2023-07-29T07:21:37;22.60;99.90
1411;DHT22;700;51.906;8.404;2023-07-29T07:26:37;23.10;99.90
1411;DHT22;700;51.906;8.404;2023-07-29T07:31:40;23.20;99.90
1411;DHT22;700;51.906;8.404;2023-07-29T07:36:43;23.70;99.90
1411;DHT22;700;51.906;8.404;2023-07-29T07:41:44;23.60;99.90
1411;DHT22;700;51.906;8.404;2023-07-29T07:46:45;23.80;99.90
1411;DHT22;700;51.906;8.404;2023-07-29T07:51:46;24.10;99.90
1411;DHT22;700;51.906;8.404;2023-07-29T07:56:46;24.30;99.90
1411;DHT22;700;51.906;8.404;2023-07-29T08:01:47;24.50;99.90
1411;DHT22;700;51.906;8.404;2023-07-29T08:06:47;24.20;99.90
1411;DHT22;700;51.906;8.404;2023-07-29T08:11:48;24.00;99.90
1411;DHT22;700;51.906;8.404;2023-07-29T08:16:48;23.90;99.90
1411;DHT22;700;51.906;8.404;2023-07-29T08:21:49;23.70;99.90
1411;DHT22;700;51.906;8.404;2023-07-29T08:26:54;23.50;99.90
1411;DHT22;700;51.906;8.404;2023-07-29T08:31:57;23.50;99.90
1411;DHT22;700;51.906;8.404;2023-07-29T08:36:58;23.70;99.90
1411;DHT22;700;51.906;8.404;2023-07-29T08:42:04;24.10;99.90
1411;DHT22;700;51.906;8.404;2023-07-29T08:47:10;24.10;99.90
1411;DHT22;700;51.906;8.404;2023-07-29T08:52:11;24.10;99.90
1411;DHT22;700;51.906;8.404;2023-07-29T08:57:15;24.80;99.90
1411;DHT22;700;51.906;8.404;2023-07-29T09:02:16;25.00;99.90
1411;DHT22;700;51.906;8.404;2023-07-29T09:07:16;25.70;99.90
1411;DHT22;700;51.906;8.404;2023-07-29T09:12:19;26.10;99.90
1411;DHT22;700;51.906;8.404;2023-07-29T09:17:23;25.80;99.90
1411;DHT22;700;51.906;8.404;2023-07-29T09:22:24;26.60;99.90
1411;DHT22;700;51.906;8.404;2023-07-29T09:32:27;24.90;99.90
1411;DHT22;700;51.906;8.404;2023-07-29T09:37:29;26.30;99.90
1411;DHT22;700;51.906;8.404;2023-07-29T09:42:31;26.90;99.90
1411;DHT22;700;51.906;8.404;2023-07-29T09:47:32;30.30;99.90
1411;DHT22;700;51.906;8.404;2023-07-29T09:52:32;33.30;93.50
1411;DHT22;700;51.906;8.404;2023-07-29T09:57:35;34.10;83.80
1411;DHT22;700;51.906;8.404;2023-07-29T10:02:42;36.80;74.80
1411;DHT22;700;51.906;8.404;2023-07-29T10:07:46;37.50;65.10
1411;DHT22;700;51.906;8.404;2023-07-29T10:12:50;35.60;64.40
1411;DHT22;700;51.906;8.404;2023-07-29T10:17:53;35.50;66.00
1411;DHT22;700;51.906;8.404;2023-07-29T10:22:55;39.40;60.00
1411;DHT22;700;51.906;8.404;2023-07-29T10:28:06;39.60;55.60
1411;DHT22;700;51.906;8.404;2023-07-29T10:33:07;39.70;52.20
1411;DHT22;700;51.906;8.404;2023-07-29T10:38:08;38.70;51.40
1411;DHT22;700;51.906;8.404;2023-07-29T10:43:12;36.80;55.10
1411;DHT22;700;51.906;8.404;2023-07-29T10:53:37;35.70;53.90
1411;DHT22;700;51.906;8.404;2023-07-29T10:58:42;33.30;58.60
1411;DHT22;700;51.906;8.404;2023-07-29T11:14:43;38.00;53.60
1411;DHT22;700;51.906;8.404;2023-07-29T11:19:46;38.10;52.50
1411;DHT22;700;51.906;8.404;2023-07-29T11:24:47;36.30;55.30
1411;DHT22;700;51.906;8.404;2023-07-29T11:29:50;36.70;55.20
1411;DHT22;700;51.906;8.404;2023-07-29T11:34:51;37.30;55.30
1411;DHT22;700;51.906;8.404;2023-07-29T11:39:51;41.20;47.70
1411;DHT22;700;51.906;8.404;2023-07-29T11:44:52;42.60;46.40
1411;DHT22;700;51.906;8.404;2023-07-29T11:49:58;39.80;45.00
1411;DHT22;700;51.906;8.404;2023-07-29T11:55:01;39.90;48.10
1411;DHT22;700;51.906;8.404;2023-07-29T12:00:06;37.50;49.60
1411;DHT22;700;51.906;8.404;2023-07-29T12:05:10;37.50;50.80
1411;DHT22;700;51.906;8.404;2023-07-29T12:10:14;36.60;51.60
1411;DHT22;700;51.906;8.404;2023-07-29T12:15:28;37.70;50.10
1411;DHT22;700;51.906;8.404;2023-07-29T12:20:30;36.10;51.30
1411;DHT22;700;51.906;8.404;2023-07-29T12:25:35;34.00;56.30
1411;DHT22;700;51.906;8.404;2023-07-29T12:30:43;34.00;58.20
1411;DHT22;700;51.906;8.404;2023-07-29T12:35:45;35.40;54.80
1411;DHT22;700;51.906;8.404;2023-07-29T12:40:48;32.80;58.80
1411;DHT22;700;51.906;8.404;2023-07-29T12:45:52;32.20;62.40
1411;DHT22;700;51.906;8.404;2023-07-29T12:50:55;31.40;64.50
1411;DHT22;700;51.906;8.404;2023-07-29T12:55:55;29.60;68.00
1411;DHT22;700;51.906;8.404;2023-07-29T13:00:56;28.40;73.50
1411;DHT22;700;51.906;8.404;2023-07-29T13:05:59;28.60;76.80
1411;DHT22;700;51.906;8.404;2023-07-29T13:11:02;33.30;68.40
1411;DHT22;700;51.906;8.404;2023-07-29T13:16:04;38.20;58.00
1411;DHT22;700;51.906;8.404;2023-07-29T13:21:06;37.20;52.80
1411;DHT22;700;51.906;8.404;2023-07-29T13:26:07;40.00;53.80
1411;DHT22;700;51.906;8.404;2023-07-29T13:31:11;37.00;52.60
1411;DHT22;700;51.906;8.404;2023-07-29T13:36:13;36.00;57.20
1411;DHT22;700;51.906;8.404;2023-07-29T13:41:16;37.10;53.60
1411;DHT22;700;51.906;8.404;2023-07-29T13:46:19;35.10;56.20
1411;DHT22;700;51.906;8.404;2023-07-29T13:51:21;35.10;56.40
1411;DHT22;700;51.906;8.404;2023-07-29T13:56:24;35.80;55.30
1411;DHT22;700;51.906;8.404;2023-07-29T14:01:25;34.30;57.00
1411;DHT22;700;51.906;8.404;2023-07-29T14:06:25;33.00;59.20
1411;DHT22;700;51.906;8.404;2023-07-29T14:11:28;31.10;62.40
1411;DHT22;700;51.906;8.404;2023-07-29T14:16:29;30.90;66.50
1411;DHT22;700;51.906;8.404;2023-07-29T14:21:32;30.10;69.10
1411;DHT22;700;51.906;8.404;2023-07-29T14:26:32;29.50;71.70
1411;DHT22;700;51.906;8.404;2023-07-29T14:31:35;29.90;72.70
1411;DHT22;700;51.906;8.404;2023-07-29T14:36:36;28.90;76.30
1411;DHT22;700;51.906;8.404;2023-07-29T14:41:37;27.80;78.20
1411;DHT22;700;51.906;8.404;2023-07-29T14:46:40;27.20;82.80
1411;DHT22;700;51.906;8.404;2023-07-29T14:51:43;27.00;86.90
1411;DHT22;700;51.906;8.404;2023-07-29T14:56:49;27.60;90.50
1411;DHT22;700;51.906;8.404;2023-07-29T15:01:52;27.20;90.40
1411;DHT22;700;51.906;8.404;2023-07-29T15:06:52;27.20;91.90
1411;DHT22;700;51.906;8.404;2023-07-29T15:11:53;27.20;92.80
1411;DHT22;700;51.906;8.404;2023-07-29T15:16:56;26.90;94.50
1411;DHT22;700;51.906;8.404;2023-07-29T15:21:56;26.50;96.70
1411;DHT22;700;51.906;8.404;2023-07-29T15:26:59;26.20;99.90
1411;DHT22;700;51.906;8.404;2023-07-29T15:32:00;25.40;99.90
1411;DHT22;700;51.906;8.404;2023-07-29T15:37:02;24.30;99.90
1411;DHT22;700;51.906;8.404;2023-07-29T15:52:13;23.00;99.90
1411;DHT22;700;51.906;8.404;2023-07-29T15:57:16;21.90;99.90
1411;DHT22;700;51.906;8.404;2023-07-29T16:02:17;21.40;99.90
1411;DHT22;700;51.906;8.404;2023-07-29T16:07:17;21.60;99.90
1411;DHT22;700;51.906;8.404;2023-07-29T16:12:18;21.50;99.90
1411;DHT22;700;51.906;8.404;2023-07-29T16:17:19;21.50;99.90
1411;DHT22;700;51.906;8.404;2023-07-29T16:22:19;22.00;99.90
1411;DHT22;700;51.906;8.404;2023-07-29T16:27:22;22.50;99.90
1411;DHT22;700;51.906;8.404;2023-07-29T16:32:28;21.80;99.90
1411;DHT22;700;51.906;8.404;2023-07-29T16:37:31;22.10;99.90
1411;DHT22;700;51.906;8.404;2023-07-29T16:42:34;22.40;99.90
1411;DHT22;700;51.906;8.404;2023-07-29T16:47:34;22.70;99.90
1411;DHT22;700;51.906;8.404;2023-07-29T16:52:38;22.60;99.90
1411;DHT22;700;51.906;8.404;2023-07-29T16:57:38;22.70;99.90
1411;DHT22;700;51.906;8.404;2023-07-29T17:02:39;22.90;99.90
1411;DHT22;700;51.906;8.404;2023-07-29T17:07:39;22.70;99.90
1411;DHT22;700;51.906;8.404;2023-07-29T17:12:40;23.00;99.90
1411;DHT22;700;51.906;8.404;2023-07-29T17:17:41;22.90;99.90
1411;DHT22;700;51.906;8.404;2023-07-29T17:22:44;22.80;99.90
1411;DHT22;700;51.906;8.404;2023-07-29T17:27:44;23.00;99.90
1411;DHT22;700;51.906;8.404;2023-07-29T17:32:45;22.90;99.90
1411;DHT22;700;51.906;8.404;2023-07-29T17:37:46;22.50;99.90
1411;DHT22;700;51.906;8.404;2023-07-29T17:42:50;22.60;99.90
1411;DHT22;700;51.906;8.404;2023-07-29T17:47:55;22.70;99.90
1411;DHT22;700;51.906;8.404;2023-07-29T17:52:55;22.70;99.90
1411;DHT22;700;51.906;8.404;2023-07-29T17:57:58;22.20;99.90
1411;DHT22;700;51.906;8.404;2023-07-29T18:02:59;21.90;99.90
1411;DHT22;700;51.906;8.404;2023-07-29T18:08:00;21.90;99.90
1411;DHT22;700;51.906;8.404;2023-07-29T18:13:03;21.90;99.90
1411;DHT22;700;51.906;8.404;2023-07-29T18:18:06;21.90;99.90
1411;DHT22;700;51.906;8.404;2023-07-29T18:23:08;21.80;99.90
1411;DHT22;700;51.906;8.404;2023-07-29T18:28:09;21.80;99.90
1411;DHT22;700;51.906;8.404;2023-07-29T18:33:10;21.80;99.90
1411;DHT22;700;51.906;8.404;2023-07-29T18:38:14;21.60;99.90
1411;DHT22;700;51.906;8.404;2023-07-29T18:43:17;21.60;99.90
1411;DHT22;700;51.906;8.404;2023-07-29T18:48:20;21.20;99.90
1411;DHT22;700;51.906;8.404;2023-07-29T18:53:20;21.10;99.90
1411;DHT22;700;51.906;8.404;2023-07-29T18:58:21;21.00;99.90
1411;DHT22;700;51.906;8.404;2023-07-29T19:03:22;21.20;99.90
1411;DHT22;700;51.906;8.404;2023-07-29T19:08:23;21.30;99.90
1411;DHT22;700;51.906;8.404;2023-07-29T19:13:23;21.50;99.90
1411;DHT22;700;51.906;8.404;2023-07-29T19:18:24;21.40;99.90
1411;DHT22;700;51.906;8.404;2023-07-29T19:23:27;21.50;99.90
1411;DHT22;700;51.906;8.404;2023-07-29T19:28:30;21.40;99.90
1411;DHT22;700;51.906;8.404;2023-07-29T19:33:31;21.70;99.90
1411;DHT22;700;51.906;8.404;2023-07-29T19:38:32;21.40;99.90
1411;DHT22;700;51.906;8.404;2023-07-29T19:43:35;21.20;99.90
1411;DHT22;700;51.906;8.404;2023-07-29T19:48:41;21.40;99.90
1411;DHT22;700;51.906;8.404;2023-07-29T19:53:41;21.40;99.90
1411;DHT22;700;51.906;8.404;2023-07-29T19:58:42;21.50;99.90
1411;DHT22;700;51.906;8.404;2023-07-29T20:03:44;21.40;99.90
1411;DHT22;700;51.906;8.404;2023-07-29T20:08:45;21.40;99.90
1411;DHT22;700;51.906;8.404;2023-07-29T20:13:49;21.30;99.90
1411;DHT22;700;51.906;8.404;2023-07-29T20:18:50;20.90;99.90
1411;DHT22;700;51.906;8.404;2023-07-29T20:23:50;21.00;99.90
1411;DHT22;700;51.906;8.404;2023-07-29T20:28:51;21.00;99.90
1411;DHT22;700;51.906;8.404;2023-07-29T20:33:54;20.70;99.90
1411;DHT22;700;51.906;8.404;2023-07-29T20:38:57;20.50;99.90
1411;DHT22;700;51.906;8.404;2023-07-29T20:44:03;20.50;99.90
1411;DHT22;700;51.906;8.404;2023-07-29T20:49:07;20.60;99.90
1411;DHT22;700;51.906;8.404;2023-07-29T20:54:07;20.70;99.90
1411;DHT22;700;51.906;8.404;2023-07-29T20:59:10;20.80;99.90
1411;DHT22;700;51.906;8.404;2023-07-29T21:04:16;20.80;99.90
1411;DHT22;700;51.906;8.404;2023-07-29T21:09:16;20.80;99.90
1411;DHT22;700;51.906;8.404;2023-07-29T21:14:17;20.80;99.90
1411;DHT22;700;51.906;8.404;2023-07-29T21:19:18;21.00;99.90
1411;DHT22;700;51.906;8.404;2023-07-29T21:24:21;21.00;99.90
1411;DHT22;700;51.906;8.404;2023-07-29T21:29:21;20.90;99.90
1411;DHT22;700;51.906;8.404;2023-07-29T21:34:22;20.60;99.90
1411;DHT22;700;51.906;8.404;2023-07-29T21:39:25;20.60;99.90
1411;DHT22;700;51.906;8.404;2023-07-29T21:44:28;20.70;99.90
1411;DHT22;700;51.906;8.404;2023-07-29T21:49:31;20.60;99.90
1411;DHT22;700;51.906;8.404;2023-07-29T21:54:37;20.50;99.90
1411;DHT22;700;51.906;8.404;2023-07-29T21:59:40;20.60;99.90
1411;DHT22;700;51.906;8.404;2023-07-29T22:04:43;20.80;99.90
1411;DHT22;700;51.906;8.404;2023-07-29T22:09:44;20.70;99.90
1411;DHT22;700;51.906;8.404;2023-07-29T22:14:47;20.40;99.90
1411;DHT22;700;51.906;8.404;2023-07-29T22:19:48;20.20;99.90
1411;DHT22;700;51.906;8.404;2023-07-29T22:24:48;20.10;99.90
1411;DHT22;700;51.906;8.404;2023-07-29T22:29:52;20.30;99.90
1411;DHT22;700;51.906;8.404;2023-07-29T22:34:53;20.20;99.90
1411;DHT22;700;51.906;8.404;2023-07-29T22:39:56;20.30;99.90
1411;DHT22;700;51.906;8.404;2023-07-29T22:44:59;20.40;99.90
1411;DHT22;700;51.906;8.404;2023-07-29T22:50:00;20.10;99.90
1411;DHT22;700;51.906;8.404;2023-07-29T22:55:01;20.10;99.90
1411;DHT22;700;51.906;8.404;2023-07-29T23:00:04;19.90;99.90
1411;DHT22;700;51.906;8.404;2023-07-29T23:05:08;20.10;99.90
1411;DHT22;700;51.906;8.404;2023-07-29T23:10:08;20.10;99.90
1411;DHT22;700;51.906;8.404;2023-07-29T23:15:09;20.10;99.90
1411;DHT22;700;51.906;8.404;2023-07-29T23:20:12;20.20;99.90
1411;DHT22;700;51.906;8.404;2023-07-29T23:25:13;20.10;99.90
1411;DHT22;700;51.906;8.404;2023-07-29T23:30:16;19.90;99.90
1411;DHT22;700;51.906;8.404;2023-07-29T23:35:19;19.90;99.90
1411;DHT22;700;51.906;8.404;2023-07-29T23:40:21;19.80;99.90
1411;DHT22;700;51.906;8.404;2023-07-29T23:45:22;19.90;99.90
1411;DHT22;700;51.906;8.404;2023-07-29T23:50:27;19.90;99.90
1411;DHT22;700;51.906;8.404;2023-07-29T23:55:29;20.10;99.90
